Airfield :
LOGIN :

Register | Disclaimer

   EN    FR    IT 

 










Legend :    VFR   Marginal VFR   IFR   Intensive IFR   Very Intensive IFR
Visi :
Ceiling :
>= 8 km
>= 3000ft
5 to 8 km
1000 to 3000 ft
1500m to 5 km
500 to 1000 ft
800 to 1500m
200 to 500 ft
< 800m
< 200 ft
Symbols :   Thunderstorms  Fog  Heavy snow  Heavy precipitations  Wind > 20 kt
SIGMETs :     Misc.  Thunderstorms  Icing  Turbulence  Mountain Waves  Volcanic Ashes







- Airport Elevation : 400 ft
- IATA code : BNX


LQBK - Banja Luka

CURRENT METAR :
  • 191400Z 03004KT 9999 SCT040 21/05 Q1027 NOSIG

EXPIRED METARs :
  • 191330Z 36008KT 9999 SCT040 20/03 Q1028 NOSIG
  • 191300Z VRB04KT 9999 SCT040 21/03 Q1028 NOSIG
  • 191230Z 10003KT 9999 FEW040 21/05 Q1028 NOSIG
  • 191200Z 36008KT 9999 FEW040 20/04 Q1029 NOSIG
  • 191130Z 36003KT 9999 FEW040 20/04 Q1029 NOSIG

TAF TAF LQBK
Valid from the 19 at 12:00 until the 20 at 12:00 UTC


191100Z 1912/2012 03005KT CAVOK TX21/1913Z TN04/2004Z
No reported NOTAMs for that airfield.



MET'MAP, your aeronautical weather chart ! - Copyright ORBIFLY December 2007 - Disclaimer

ORBIFLY MET'MAP TEAM :

Programming & Development : Alexandra Zaïnal
Concept & Development : Baudouin d'Aumeries
Co-Development & Prog : Marc-Olivier Méhu
Technical & hardware support : Manuel Goepfert

Contact : metmap@orbifly.com




SOURCES & CREDITS :

   NOAA